Time;durP1;ratioP1;P1;durP2;ratioP2;P2;SDS_P1;SDS_P2;PMS_P1;PMS_P2;Temp;Humidity;BMP_temperature;BMP_pressure;BME280_temperature;BME280_humidity;BME280_pressure;Samples;Min_cycle;Max_cycle;Signal;HPM_P1;HPM_P2
2022/01/12 00:00:15;;;;;;;205.10;53.90;;;4.10;99.90;;;;;;4875541;29;20222;-84
2022/01/12 00:02:40;;;;;;;201.00;55.42;;;3.30;99.90;;;;;;4874800;29;20178;-83
2022/01/12 00:05:06;;;;;;;210.85;54.97;;;3.10;99.90;;;;;;4843606;29;20508;-83
2022/01/12 00:07:32;;;;;;;227.55;55.83;;;3.10;99.90;;;;;;4859176;29;20059;-83
2022/01/12 00:09:58;;;;;;;276.17;60.30;;;3.10;99.90;;;;;;4844305;29;20049;-84
2022/01/12 00:12:26;;;;;;;236.45;53.30;;;3.80;99.90;;;;;;4859044;29;20048;-83
2022/01/12 00:14:52;;;;;;;271.00;59.15;;;4.30;99.90;;;;;;4859665;29;20041;-83
2022/01/12 00:17:18;;;;;;;216.10;53.70;;;3.60;99.90;;;;;;4873716;29;20088;-83
2022/01/12 00:19:44;;;;;;;211.77;54.78;;;3.40;99.90;;;;;;4858560;29;20092;-83
2022/01/12 00:22:09;;;;;;;270.45;58.08;;;2.80;99.90;;;;;;4859671;29;20136;-83
2022/01/12 00:25:05;;;;;;;222.35;56.45;;;3.20;99.90;;;;;;4858354;29;20232;-83
2022/01/12 00:33:09;;;;;;;328.38;62.08;;;3.20;99.90;;;;;;4858620;29;20103;-83
2022/01/12 00:35:36;;;;;;;353.33;65.18;;;3.30;99.90;;;;;;4859182;29;20096;-83
2022/01/12 00:38:02;;;;;;;302.50;61.75;;;3.60;99.90;;;;;;4859530;29;20049;-84
2022/01/12 00:40:39;;;;;;;397.00;67.55;;;3.70;99.90;;;;;;4858116;29;20048;-84
2022/01/12 00:43:08;;;;;;;294.90;60.03;;;3.10;99.90;;;;;;4843666;29;20053;-84
2022/01/12 00:45:37;;;;;;;366.80;61.78;;;4.20;99.90;;;;;;4858365;29;20052;-83
2022/01/12 00:48:04;;;;;;;376.58;64.13;;;3.10;99.90;;;;;;4858720;29;20497;-84
2022/01/12 00:50:30;;;;;;;399.75;69.20;;;3.10;99.90;;;;;;4843293;29;20417;-84
2022/01/12 00:52:57;;;;;;;444.88;69.32;;;3.00;99.90;;;;;;4858084;29;20056;-84
2022/01/12 00:55:22;;;;;;;444.50;69.57;;;3.20;99.90;;;;;;4843203;29;20095;-84
2022/01/12 00:57:49;;;;;;;416.52;66.88;;;4.30;99.90;;;;;;4843522;29;20049;-84
2022/01/12 01:00:15;;;;;;;425.25;69.00;;;3.20;99.90;;;;;;4857593;29;20056;-83
2022/01/12 01:02:42;;;;;;;432.00;69.45;;;3.20;99.90;;;;;;4842571;29;20080;-83
2022/01/12 01:05:08;;;;;;;421.38;68.03;;;4.50;99.90;;;;;;4858329;29;20113;-83
2022/01/12 01:07:34;;;;;;;377.00;62.50;;;3.20;99.90;;;;;;4857985;29;20053;-83
2022/01/12 01:10:09;;;;;;;447.65;68.28;;;4.40;99.90;;;;;;4843949;29;20055;-83
2022/01/12 01:12:36;;;;;;;447.67;71.30;;;4.30;99.90;;;;;;4842766;29;20044;-83
2022/01/12 01:15:07;;;;;;;457.00;70.70;;;4.50;99.90;;;;;;4857558;29;20057;-83
2022/01/12 01:25:44;;;;;;;508.88;70.80;;;3.20;99.90;;;;;;4858148;29;20515;-83
2022/01/12 01:28:11;;;;;;;552.65;77.05;;;3.40;99.90;;;;;;4857540;29;20049;-83
2022/01/12 01:30:39;;;;;;;554.38;74.20;;;3.30;99.90;;;;;;4842786;29;20437;-83
2022/01/12 01:33:17;;;;;;;611.35;78.07;;;3.30;99.90;;;;;;4857987;29;20049;-83
2022/01/12 01:35:52;;;;;;;553.60;75.80;;;4.60;99.90;;;;;;4856835;29;20045;-83
2022/01/12 01:38:18;;;;;;;639.80;79.85;;;4.40;99.90;;;;;;4843143;29;20068;-83
2022/01/12 01:40:44;;;;;;;569.65;76.07;;;3.40;99.90;;;;;;4842879;29;20044;-83
2022/01/12 01:43:23;;;;;;;514.38;68.97;;;3.40;99.90;;;;;;4842349;29;20469;-83
2022/01/12 01:54:03;;;;;;;611.05;75.38;;;3.40;99.90;;;;;;4858125;29;20148;-83
2022/01/12 01:56:30;;;;;;;593.03;75.18;;;3.40;99.90;;;;;;4856978;29;20123;-83
2022/01/12 01:58:56;;;;;;;545.13;72.03;;;4.90;99.90;;;;;;4842514;29;20078;-83
2022/01/12 02:01:22;;;;;;;640.50;77.05;;;4.00;99.90;;;;;;4841879;29;20100;-84
2022/01/12 02:03:48;;;;;;;537.85;69.65;;;3.70;99.90;;;;;;4856447;29;20059;-84
2022/01/12 02:06:16;;;;;;;403.08;60.60;;;3.70;99.90;;;;;;4858176;29;20497;-83
2022/01/12 02:08:41;;;;;;;390.10;61.63;;;3.50;99.90;;;;;;4841567;29;20055;-83
2022/01/12 02:11:07;;;;;;;359.70;58.83;;;3.60;99.90;;;;;;4857336;29;20049;-83
2022/01/12 02:13:33;;;;;;;315.67;55.08;;;4.10;99.90;;;;;;4857059;29;20099;-84
2022/01/12 02:15:59;;;;;;;349.58;56.97;;;3.60;99.90;;;;;;4856686;29;20878;-84
2022/01/12 02:40:18;;;;;;;188.45;40.58;;;3.70;99.90;;;;;;4856946;29;20057;-84
2022/01/12 02:42:48;;;;;;;171.90;38.50;;;5.00;99.90;;;;;;4856959;29;20053;-85
2022/01/12 02:50:47;;;;;;;239.43;42.88;;;5.10;99.90;;;;;;4856552;29;20151;-85
2022/01/12 02:56:00;;;;;;;232.95;41.80;;;4.40;99.90;;;;;;4856523;29;20057;-84
2022/01/12 02:58:34;;;;;;;199.20;37.85;;;3.50;99.90;;;;;;4841625;29;20071;-84
2022/01/12 03:03:46;;;;;;;210.88;38.65;;;4.50;99.90;;;;;;4856291;29;20067;-84
2022/01/12 03:06:18;;;;;;;231.88;38.92;;;3.40;99.90;;;;;;4856507;29;20045;-85
2022/01/12 03:08:44;;;;;;;186.70;36.60;;;3.40;99.90;;;;;;4873947;29;20057;-84
2022/01/12 03:11:13;;;;;;;249.18;39.13;;;3.30;99.90;;;;;;4875211;29;20048;-84
2022/01/12 03:13:39;;;;;;;181.75;33.05;;;3.20;99.90;;;;;;4862817;29;20049;-84
2022/01/12 03:16:15;;;;;;;245.18;37.72;;;3.30;99.90;;;;;;4856820;29;20510;-85
2022/01/12 03:18:43;;;;;;;377.83;43.92;;;2.90;99.90;;;;;;4856906;29;20108;-85
2022/01/12 03:21:10;;;;;;;157.32;36.42;;;2.80;99.90;;;;;;4855997;29;20089;-85
2022/01/12 03:23:36;;;;;;;376.80;39.20;;;2.70;99.90;;;;;;4843108;29;20116;-84
2022/01/12 03:26:02;;;;;;;210.95;33.05;;;2.80;99.90;;;;;;4860977;29;20056;-84
2022/01/12 03:28:28;;;;;;;1030.95;57.00;;;3.00;99.90;;;;;;4878222;29;20051;-84
2022/01/12 03:30:58;;;;;;;923.78;44.95;;;2.40;99.90;;;;;;4878494;29;20045;-84
2022/01/12 03:36:25;;;;;;;553.03;39.70;;;3.00;99.90;;;;;;4877531;29;20091;-84
2022/01/12 03:39:00;;;;;;;517.03;42.90;;;2.00;99.90;;;;;;4863666;29;20096;-84
2022/01/12 03:41:36;;;;;;;443.20;27.15;;;1.70;99.90;;;;;;4878350;29;20056;-84
2022/01/12 03:44:04;;;;;;;656.83;42.10;;;1.70;99.90;;;;;;4863296;29;20056;-84
2022/01/12 03:46:44;;;;;;;771.72;42.25;;;1.80;99.90;;;;;;4863179;29;20049;-84
2022/01/12 03:49:10;;;;;;;691.45;37.03;;;1.70;99.90;;;;;;4862001;29;20080;-84
2022/01/12 03:51:39;;;;;;;709.92;36.35;;;1.70;99.90;;;;;;4878880;29;20049;-84
2022/01/12 03:54:05;;;;;;;741.95;40.92;;;1.60;99.90;;;;;;4862796;29;20045;-84
2022/01/12 03:56:31;;;;;;;699.00;37.10;;;2.30;99.90;;;;;;4862548;29;20453;-84
2022/01/12 03:58:57;;;;;;;662.60;37.17;;;1.50;99.90;;;;;;4878875;29;20044;-84
2022/01/12 04:01:23;;;;;;;560.03;39.22;;;1.50;99.90;;;;;;4877875;29;20500;-84
2022/01/12 04:04:08;;;;;;;481.35;41.38;;;1.50;99.90;;;;;;4858815;29;20136;-84
2022/01/12 04:09:19;;;;;;;495.38;40.05;;;1.40;99.90;;;;;;4858700;29;20049;-84
2022/01/12 04:11:48;;;;;;;564.83;44.58;;;1.60;99.90;;;;;;4859766;29;20489;-84
2022/01/12 04:14:13;;;;;;;175.80;28.75;;;1.50;99.90;;;;;;4859526;29;20049;-85
2022/01/12 04:16:40;;;;;;;536.65;47.08;;;1.60;99.90;;;;;;4843111;29;20217;-84
2022/01/12 04:19:06;;;;;;;757.72;61.40;;;1.80;99.90;;;;;;4859422;29;20560;-85
2022/01/12 04:21:45;;;;;;;822.15;61.20;;;1.60;99.90;;;;;;4859177;29;20601;-84
2022/01/12 04:24:10;;;;;;;801.58;62.55;;;1.70;99.90;;;;;;4843681;29;20045;-84
2022/01/12 04:26:39;;;;;;;751.75;54.92;;;0.90;99.90;;;;;;4859663;29;20059;-84
2022/01/12 04:29:07;;;;;;;838.97;62.58;;;1.70;99.90;;;;;;4859209;29;20053;-84
2022/01/12 04:31:34;;;;;;;730.60;54.30;;;1.80;99.90;;;;;;4843239;29;20065;-83
2022/01/12 04:34:00;;;;;;;734.28;55.75;;;2.90;99.90;;;;;;4859058;29;20442;-84
2022/01/12 04:36:25;;;;;;;555.10;45.83;;;1.70;99.90;;;;;;4859240;29;20493;-84
2022/01/12 04:38:52;;;;;;;735.78;56.05;;;1.80;99.90;;;;;;4857721;29;20182;-84
2022/01/12 04:41:17;;;;;;;677.92;52.55;;;2.80;99.90;;;;;;4858926;29;20079;-84
2022/01/12 04:43:44;;;;;;;581.60;46.72;;;1.80;99.90;;;;;;4859183;29;20481;-83
2022/01/12 04:51:10;;;;;;;478.33;43.03;;;2.40;99.90;;;;;;4858657;29;20143;-84
2022/01/12 04:53:39;;;;;;;465.35;41.80;;;1.30;99.90;;;;;;4858645;29;20056;-84
2022/01/12 04:56:05;;;;;;;481.90;43.78;;;1.60;99.90;;;;;;4859082;29;20080;-84
2022/01/12 04:58:32;;;;;;;554.00;44.72;;;2.50;99.90;;;;;;4843282;29;20189;-85
2022/01/12 05:01:05;;;;;;;537.65;44.40;;;2.20;99.90;;;;;;4873991;29;20556;-85
2022/01/12 05:06:26;;;;;;;777.47;52.25;;;1.60;99.90;;;;;;4858367;29;20088;-83
2022/01/12 05:09:07;;;;;;;702.40;46.75;;;1.30;99.90;;;;;;4843833;29;20493;-82
2022/01/12 05:14:19;;;;;;;549.17;38.65;;;1.40;99.90;;;;;;4857720;29;20045;-83
2022/01/12 05:16:44;;;;;;;603.80;42.83;;;1.30;99.90;;;;;;4858522;29;20457;-83
2022/01/12 05:19:10;;;;;;;592.72;39.55;;;1.20;99.90;;;;;;4858267;29;20562;-84
2022/01/12 05:21:36;;;;;;;266.42;28.70;;;1.70;99.90;;;;;;4865182;29;20086;-83
2022/01/12 05:24:06;;;;;;;698.75;47.08;;;1.10;99.90;;;;;;4867532;29;20099;-82
2022/01/12 05:26:33;;;;;;;482.13;35.90;;;1.20;99.90;;;;;;4856837;29;20057;-83
2022/01/12 05:28:59;;;;;;;535.75;37.78;;;1.20;99.90;;;;;;4860374;29;20055;-83
2022/01/12 05:31:24;;;;;;;692.95;50.38;;;1.60;99.90;;;;;;4860871;29;20120;-83
2022/01/12 05:33:51;;;;;;;496.55;38.90;;;1.10;99.90;;;;;;4853247;29;20556;-81
2022/01/12 05:36:18;;;;;;;455.20;35.55;;;1.10;99.90;;;;;;4849412;29;20048;-82
2022/01/12 05:38:45;;;;;;;388.23;34.38;;;1.10;99.90;;;;;;4866353;29;20049;-82
2022/01/12 05:41:11;;;;;;;460.33;32.80;;;1.90;99.90;;;;;;4850899;29;20469;-82
2022/01/12 05:43:38;;;;;;;401.80;31.92;;;1.00;99.90;;;;;;4851344;29;20049;-82
2022/01/12 05:46:14;;;;;;;419.80;39.30;;;1.10;99.90;;;;;;4868808;29;20454;-83
2022/01/12 05:51:27;;;;;;;521.30;38.25;;;1.10;99.90;;;;;;4857651;29;20084;-82
2022/01/12 05:53:53;;;;;;;495.77;36.33;;;1.00;99.90;;;;;;4858167;29;20060;-83
2022/01/12 05:56:19;;;;;;;407.65;33.95;;;1.80;99.90;;;;;;4857318;29;20052;-83
2022/01/12 05:58:45;;;;;;;394.08;33.88;;;1.00;99.90;;;;;;4857228;29;20057;-82
2022/01/12 06:01:11;;;;;;;316.65;30.30;;;1.30;99.90;;;;;;4857457;29;20060;-82
2022/01/12 06:03:37;;;;;;;173.13;23.27;;;0.80;99.90;;;;;;4841028;29;20053;-82
2022/01/12 06:06:03;;;;;;;230.25;27.52;;;1.30;99.90;;;;;;4857345;29;20056;-84
2022/01/12 06:08:29;;;;;;;246.07;29.30;;;0.80;99.90;;;;;;4857263;29;20039;-83
2022/01/12 06:10:54;;;;;;;110.18;21.52;;;1.00;99.90;;;;;;4865549;29;20080;-83
2022/01/12 06:13:20;;;;;;;155.27;23.80;;;0.10;99.90;;;;;;4866342;29;20044;-83
2022/01/12 06:15:46;;;;;;;272.80;28.83;;;2.00;99.90;;;;;;4857796;29;20055;-84
2022/01/12 06:18:11;;;;;;;82.03;19.00;;;1.10;99.90;;;;;;4858469;29;20037;-84
2022/01/12 06:20:37;;;;;;;81.25;18.75;;;1.70;99.90;;;;;;4865082;29;20068;-84
2022/01/12 06:23:03;;;;;;;204.88;26.25;;;0.60;99.90;;;;;;4874599;29;20090;-84
2022/01/12 06:25:29;;;;;;;193.23;24.13;;;0.20;99.90;;;;;;4860765;29;20358;-84
2022/01/12 06:27:58;;;;;;;190.80;26.65;;;1.50;99.90;;;;;;4875674;29;20072;-84
2022/01/12 06:32:54;;;;;;;257.02;27.48;;;1.30;99.90;;;;;;4875985;29;20112;-83
2022/01/12 06:35:20;;;;;;;304.70;27.77;;;1.90;99.90;;;;;;4848636;29;20049;-84
2022/01/12 06:37:46;;;;;;;235.30;28.38;;;0.60;99.90;;;;;;4843173;29;20121;-84
2022/01/12 06:40:13;;;;;;;242.07;25.50;;;0.50;99.90;;;;;;4852744;29;20051;-84
2022/01/12 06:42:39;;;;;;;227.90;25.25;;;0.60;99.90;;;;;;4857426;29;20045;-85
2022/01/12 06:45:06;;;;;;;154.00;22.55;;;0.50;99.90;;;;;;4856183;29;20520;-85
2022/01/12 06:47:32;;;;;;;251.52;26.13;;;0.50;99.90;;;;;;4856477;29;20053;-85
2022/01/12 06:49:58;;;;;;;140.40;22.65;;;0.80;99.90;;;;;;4856495;29;20045;-85
2022/01/12 06:52:24;;;;;;;338.58;32.55;;;0.50;99.90;;;;;;4855864;29;20112;-84
2022/01/12 06:54:49;;;;;;;168.20;24.80;;;0.40;99.90;;;;;;4857072;29;20057;-85
2022/01/12 06:57:17;;;;;;;207.13;27.70;;;1.90;99.90;;;;;;4856840;29;20132;-85
2022/01/12 06:59:43;;;;;;;169.70;24.77;;;1.30;99.90;;;;;;4856430;29;20082;-85
2022/01/12 07:02:09;;;;;;;204.38;26.17;;;0.60;99.90;;;;;;4860346;29;20045;-86
2022/01/12 07:04:35;;;;;;;240.85;28.45;;;0.70;99.90;;;;;;4860737;29;20449;-84
2022/01/12 07:07:02;;;;;;;216.55;24.33;;;1.10;99.90;;;;;;4860197;29;20063;-85
2022/01/12 07:09:28;;;;;;;251.93;25.38;;;0.70;99.90;;;;;;4860557;29;20049;-85
2022/01/12 07:11:53;;;;;;;232.65;26.25;;;0.60;99.90;;;;;;4860354;29;20108;-85
2022/01/12 07:14:19;;;;;;;308.65;31.02;;;0.60;99.90;;;;;;4859639;29;20049;-85
2022/01/12 07:16:45;;;;;;;188.68;24.27;;;0.70;99.90;;;;;;4860070;29;20490;-85
2022/01/12 07:19:11;;;;;;;198.93;23.85;;;0.60;99.90;;;;;;4860291;29;20063;-86
2022/01/12 07:21:37;;;;;;;229.05;22.77;;;1.00;99.90;;;;;;4859815;29;20057;-85
2022/01/12 07:24:03;;;;;;;260.67;27.30;;;0.50;99.90;;;;;;4860592;29;20052;-85
2022/01/12 07:26:29;;;;;;;128.20;18.98;;;0.60;99.90;;;;;;4859442;29;20053;-85
2022/01/12 07:28:56;;;;;;;132.63;18.15;;;0.60;99.90;;;;;;4860572;29;20063;-84
2022/01/12 07:31:22;;;;;;;118.80;19.08;;;1.00;99.90;;;;;;4850796;29;20056;-84
2022/01/12 07:33:50;;;;;;;253.80;27.20;;;1.40;99.90;;;;;;4859244;29;20156;-84
2022/01/12 07:36:16;;;;;;;122.05;18.38;;;0.60;99.90;;;;;;4860188;29;20461;-82
2022/01/12 07:38:43;;;;;;;120.13;20.65;;;1.30;99.90;;;;;;4876600;29;20210;-82
2022/01/12 07:41:09;;;;;;;159.10;23.52;;;1.00;99.90;;;;;;4875577;29;20048;-82
2022/01/12 07:43:44;;;;;;;103.40;17.55;;;1.20;99.90;;;;;;4878045;29;20051;-82
2022/01/12 07:46:09;;;;;;;78.55;16.08;;;1.70;99.90;;;;;;4878291;29;20045;-82
2022/01/12 07:48:35;;;;;;;83.32;18.80;;;1.50;99.90;;;;;;4876825;29;20528;-81
2022/01/12 07:51:01;;;;;;;100.88;18.13;;;0.60;99.90;;;;;;4877342;29;20068;-81
2022/01/12 07:53:26;;;;;;;105.68;18.00;;;0.60;99.90;;;;;;4869962;29;20052;-81
2022/01/12 07:55:52;;;;;;;138.73;21.23;;;0.60;99.90;;;;;;4871802;29;20067;-82
2022/01/12 07:58:18;;;;;;;117.68;20.17;;;1.40;99.90;;;;;;4862825;29;20048;-81
2022/01/12 08:00:44;;;;;;;120.32;21.30;;;0.60;99.90;;;;;;4876951;29;20152;-83
2022/01/12 08:03:10;;;;;;;128.18;21.63;;;0.40;99.90;;;;;;4864180;29;20208;-83
2022/01/12 08:05:35;;;;;;;112.32;20.85;;;0.80;99.90;;;;;;4874547;29;20057;-83
2022/01/12 08:08:02;;;;;;;123.43;20.13;;;0.50;99.90;;;;;;4875029;29;20048;-83
2022/01/12 08:10:27;;;;;;;148.10;23.70;;;0.40;99.90;;;;;;4858377;29;20048;-82
2022/01/12 08:12:53;;;;;;;97.18;19.25;;;0.80;99.90;;;;;;4857762;29;20045;-83
2022/01/12 08:15:19;;;;;;;155.45;21.38;;;0.60;99.90;;;;;;4859252;29;20048;-83
2022/01/12 08:17:45;;;;;;;85.57;18.60;;;0.60;99.90;;;;;;4863335;29;20379;-83
2022/01/12 08:20:14;;;;;;;86.72;17.20;;;0.60;99.90;;;;;;4848453;29;20076;-82
2022/01/12 08:22:40;;;;;;;85.32;15.07;;;0.60;99.90;;;;;;4843072;29;20121;-82
2022/01/12 08:25:09;;;;;;;121.53;19.48;;;0.60;99.90;;;;;;4844056;29;20108;-83
2022/01/12 08:27:35;;;;;;;115.53;18.75;;;0.60;99.90;;;;;;4843628;29;20153;-83
2022/01/12 08:30:02;;;;;;;103.18;17.60;;;0.60;99.90;;;;;;4858597;29;20428;-83
2022/01/12 08:32:28;;;;;;;169.23;22.50;;;0.70;99.90;;;;;;4843154;29;20472;-84
2022/01/12 08:34:57;;;;;;;122.05;19.20;;;1.30;99.90;;;;;;4844685;29;20053;-82
2022/01/12 08:37:23;;;;;;;123.13;18.13;;;0.80;99.90;;;;;;4842368;29;20397;-84
2022/01/12 08:39:51;;;;;;;103.57;15.25;;;0.40;99.90;;;;;;4843461;29;20132;-84
2022/01/12 08:42:16;;;;;;;147.27;21.85;;;0.80;99.90;;;;;;4843474;29;20041;-83
2022/01/12 08:44:42;;;;;;;139.57;21.55;;;1.40;99.90;;;;;;4857965;29;20036;-83
2022/01/12 08:47:08;;;;;;;152.00;21.50;;;2.00;99.90;;;;;;4864781;29;20052;-83
2022/01/12 08:49:33;;;;;;;218.13;24.15;;;0.90;99.90;;;;;;4853478;29;20072;-84
2022/01/12 08:51:59;;;;;;;165.85;19.45;;;1.00;99.90;;;;;;4852682;29;20074;-83
2022/01/12 08:54:25;;;;;;;123.75;18.10;;;1.00;99.90;;;;;;4856349;29;20060;-83
2022/01/12 08:56:51;;;;;;;165.18;19.83;;;1.00;99.90;;;;;;4848943;29;20408;-85
2022/01/12 08:59:17;;;;;;;133.38;18.00;;;2.30;99.90;;;;;;4847032;29;20033;-86
2022/01/12 09:01:43;;;;;;;147.55;18.77;;;1.30;99.90;;;;;;4850103;29;20041;-85
2022/01/12 09:04:09;;;;;;;151.43;19.65;;;2.10;99.90;;;;;;4856004;29;20564;-85
2022/01/12 09:06:38;;;;;;;109.95;15.95;;;0.60;99.90;;;;;;4857354;29;20049;-85
2022/01/12 09:09:04;;;;;;;171.55;20.20;;;1.20;99.90;;;;;;4851881;29;20184;-85
2022/01/12 09:11:31;;;;;;;158.77;17.10;;;1.40;99.90;;;;;;4852154;29;20040;-85
2022/01/12 09:13:56;;;;;;;112.22;17.10;;;1.30;99.90;;;;;;4858674;29;20041;-85
2022/01/12 09:16:22;;;;;;;180.57;20.83;;;1.10;99.90;;;;;;4860566;29;20454;-84
2022/01/12 09:18:57;;;;;;;137.65;18.42;;;1.30;99.90;;;;;;4854821;29;20049;-85
2022/01/12 09:21:23;;;;;;;142.13;19.80;;;1.40;99.90;;;;;;4858070;29;20135;-85
2022/01/12 09:23:50;;;;;;;160.07;20.60;;;1.90;99.90;;;;;;4858036;29;20060;-85
2022/01/12 09:26:16;;;;;;;88.00;14.20;;;2.30;99.90;;;;;;4857376;29;20056;-85
2022/01/12 09:28:42;;;;;;;105.65;15.15;;;2.90;99.90;;;;;;4842977;29;20407;-87
2022/01/12 09:31:08;;;;;;;122.75;16.98;;;1.70;99.90;;;;;;4832674;29;20464;-85
2022/01/12 09:33:36;;;;;;;123.20;16.05;;;2.60;99.90;;;;;;4823633;29;20139;-85
2022/01/12 09:36:02;;;;;;;139.00;16.70;;;1.80;99.90;;;;;;4830362;29;20450;-85
2022/01/12 09:38:28;;;;;;;160.27;16.55;;;1.90;99.90;;;;;;4852283;29;20045;-85
2022/01/12 09:40:54;;;;;;;128.57;15.90;;;2.00;99.90;;;;;;4837953;29;20049;-84
2022/01/12 09:43:24;;;;;;;210.30;21.23;;;2.10;99.90;;;;;;4854390;29;20059;-87
2022/01/12 09:45:51;;;;;;;135.90;18.13;;;2.00;99.90;;;;;;4854552;29;20053;-86
2022/01/12 09:48:23;;;;;;;139.48;18.58;;;2.10;99.90;;;;;;4838660;29;20165;-86
2022/01/12 09:50:52;;;;;;;124.18;14.48;;;2.30;99.90;;;;;;4838949;29;20056;-87
2022/01/12 09:53:17;;;;;;;170.35;17.17;;;2.00;99.90;;;;;;4839123;29;20052;-86
2022/01/12 09:55:43;;;;;;;187.30;18.33;;;2.30;99.90;;;;;;4854335;29;20045;-87
2022/01/12 09:58:09;;;;;;;169.00;15.90;;;3.10;99.90;;;;;;4836230;29;20133;-87
2022/01/12 10:00:35;;;;;;;145.70;14.43;;;2.40;99.90;;;;;;4835522;29;20053;-87
2022/01/12 10:03:11;;;;;;;177.77;16.23;;;3.70;99.90;;;;;;4820137;29;20072;-87
2022/01/12 10:05:40;;;;;;;184.25;16.50;;;2.80;99.90;;;;;;4820143;29;20045;-86
2022/01/12 10:08:09;;;;;;;195.55;16.50;;;2.50;99.90;;;;;;4821489;29;20117;-85
2022/01/12 10:10:34;;;;;;;163.60;17.00;;;2.50;99.90;;;;;;4847008;29;20057;-87
2022/01/12 10:13:00;;;;;;;214.88;16.60;;;3.30;99.90;;;;;;4837747;29;20048;-85
2022/01/12 10:15:29;;;;;;;195.65;15.40;;;3.50;99.90;;;;;;4838040;29;20463;-86
2022/01/12 10:18:04;;;;;;;179.68;16.95;;;2.70;99.90;;;;;;4839126;29;20045;-86
2022/01/12 10:20:30;;;;;;;184.10;19.17;;;2.80;99.90;;;;;;4855253;29;20505;-86
2022/01/12 10:22:57;;;;;;;183.27;15.88;;;2.90;99.90;;;;;;4852541;29;20064;-86
2022/01/12 10:25:23;;;;;;;181.82;16.77;;;2.90;99.90;;;;;;4854259;29;20056;-86
2022/01/12 10:27:49;;;;;;;204.85;17.38;;;3.60;99.90;;;;;;4869866;29;20055;-84
2022/01/12 10:30:21;;;;;;;146.90;16.38;;;3.80;99.90;;;;;;4848344;29;20040;-85
2022/01/12 10:33:02;;;;;;;128.60;15.27;;;3.20;99.90;;;;;;4838349;29;20056;-85
2022/01/12 10:35:29;;;;;;;145.23;13.68;;;3.30;99.90;;;;;;4858222;29;20112;-84
2022/01/12 10:38:10;;;;;;;186.40;16.08;;;4.80;99.90;;;;;;4844692;29;20531;-85
2022/01/12 10:40:57;;;;;;;168.32;14.82;;;3.40;99.90;;;;;;4845284;29;20577;-84
2022/01/12 10:43:27;;;;;;;160.02;13.32;;;3.50;99.90;;;;;;4846340;29;20049;-84
2022/01/12 10:45:52;;;;;;;203.45;16.02;;;3.50;99.90;;;;;;4852708;29;20592;-85
2022/01/12 10:48:18;;;;;;;194.70;16.30;;;4.30;99.90;;;;;;4843569;29;20141;-85
2022/01/12 10:50:59;;;;;;;176.85;15.82;;;3.60;99.90;;;;;;4859162;29;20525;-85
2022/01/12 10:53:31;;;;;;;148.60;15.13;;;3.60;99.90;;;;;;4842830;29;20167;-85
2022/01/12 10:56:06;;;;;;;142.77;16.67;;;3.60;99.90;;;;;;4844386;29;20049;-85
2022/01/12 10:58:33;;;;;;;174.32;17.25;;;3.70;99.90;;;;;;4844745;29;20057;-85
2022/01/12 11:01:09;;;;;;;160.15;18.15;;;5.10;99.90;;;;;;4861353;29;20473;-86
2022/01/12 11:03:37;;;;;;;140.15;17.20;;;3.70;99.90;;;;;;4842945;29;20141;-85
2022/01/12 11:06:05;;;;;;;86.88;15.13;;;3.90;99.90;;;;;;4846034;29;20472;-87
2022/01/12 11:08:34;;;;;;;115.20;16.80;;;4.70;99.90;;;;;;4848625;29;20282;-86
2022/01/12 11:11:01;;;;;;;85.70;15.23;;;5.20;99.90;;;;;;4844029;29;20045;-87
2022/01/12 11:13:29;;;;;;;91.47;15.45;;;4.00;99.90;;;;;;4859786;29;20059;-87
2022/01/12 11:15:57;;;;;;;61.03;14.15;;;5.00;99.90;;;;;;4853743;29;20080;-87
2022/01/12 11:18:27;;;;;;;80.72;15.45;;;3.80;99.90;;;;;;4869520;29;20048;-87
2022/01/12 11:20:59;;;;;;;63.90;14.65;;;4.20;99.90;;;;;;4849254;29;20057;-87
2022/01/12 11:24:18;;;;;;;67.43;13.68;;;5.10;99.90;;;;;;4844527;29;20127;-84
2022/01/12 11:27:55;;;;;;;;;;;;;;;;;;;;;
2022/01/12 11:30:24;;;;;;;72.95;13.48;;;4.40;99.90;;;;;;4820544;29;20064;-87
2022/01/12 11:33:03;;;;;;;81.03;14.75;;;5.30;99.90;;;;;;4856107;29;20049;-89
2022/01/12 11:35:59;;;;;;;71.72;15.05;;;4.40;99.90;;;;;;4859366;29;20055;-89
2022/01/12 11:38:50;;;;;;;81.75;15.75;;;4.40;99.90;;;;;;4855403;29;20195;-88
2022/01/12 11:41:32;;;;;;;84.07;16.67;;;4.50;99.90;;;;;;4843896;29;20053;-88
2022/01/12 11:44:05;;;;;;;69.05;15.18;;;4.60;99.90;;;;;;4835795;29;20057;-87
2022/01/12 11:46:47;;;;;;;59.92;14.10;;;4.70;99.90;;;;;;4835797;29;20485;-87
2022/01/12 11:49:31;;;;;;;58.33;15.23;;;4.80;99.90;;;;;;4839951;29;20060;-86
2022/01/12 11:52:15;;;;;;;73.63;15.38;;;4.80;99.90;;;;;;4844153;29;20052;-87
2022/01/12 11:54:47;;;;;;;80.60;16.58;;;4.90;99.90;;;;;;4849022;29;20045;-87
2022/01/12 11:57:20;;;;;;;69.10;16.23;;;4.90;99.90;;;;;;4847793;29;20048;-87
2022/01/12 11:59:56;;;;;;;59.05;15.13;;;4.90;99.90;;;;;;4839129;29;20480;-87
2022/01/12 12:02:37;;;;;;;68.45;15.45;;;4.90;99.90;;;;;;4838390;29;20053;-87
2022/01/12 12:05:12;;;;;;;62.97;15.52;;;5.00;99.90;;;;;;4864313;29;20428;-87
2022/01/12 12:07:46;;;;;;;65.32;15.20;;;5.00;99.90;;;;;;4844724;29;20512;-88
2022/01/12 12:10:21;;;;;;;69.65;16.80;;;4.50;99.90;;;;;;4852460;29;20321;-87
2022/01/12 12:12:50;;;;;;;66.18;16.55;;;5.00;99.90;;;;;;4854189;29;20057;-88
2022/01/12 12:15:16;;;;;;;70.10;16.38;;;5.10;99.90;;;;;;4868439;29;20068;-87
2022/01/12 12:17:52;;;;;;;60.17;15.30;;;5.10;99.90;;;;;;4841588;29;20437;-87
2022/01/12 12:20:20;;;;;;;64.90;16.20;;;5.20;99.90;;;;;;4834216;29;20053;-85
2022/01/12 12:23:02;;;;;;;54.00;15.63;;;5.20;99.90;;;;;;4834602;29;20065;-87
2022/01/12 12:25:31;;;;;;;63.87;16.37;;;5.30;99.90;;;;;;4837678;29;20127;-86
2022/01/12 12:28:00;;;;;;;63.70;16.42;;;5.20;99.90;;;;;;4829340;29;20761;-86
2022/01/12 12:30:27;;;;;;;54.35;16.92;;;5.20;99.90;;;;;;4828961;29;20049;-87
2022/01/12 12:33:11;;;;;;;55.20;16.85;;;5.30;99.90;;;;;;4838273;29;20053;-86
2022/01/12 12:35:38;;;;;;;77.25;18.73;;;5.30;99.90;;;;;;4852977;29;20708;-86
2022/01/12 12:38:06;;;;;;;73.22;16.98;;;6.00;99.90;;;;;;4837019;29;20049;-86
2022/01/12 12:40:42;;;;;;;67.32;16.50;;;5.40;99.90;;;;;;4838468;29;20056;-85
2022/01/12 12:43:33;;;;;;;57.60;16.88;;;5.40;99.90;;;;;;4837454;29;20120;-86
2022/01/12 12:46:15;;;;;;;71.97;16.73;;;6.40;99.90;;;;;;4837476;29;20370;-85
2022/01/12 12:48:41;;;;;;;64.13;16.45;;;5.40;99.90;;;;;;4838335;29;20267;-85
2022/01/12 12:51:12;;;;;;;60.28;17.67;;;5.40;99.90;;;;;;4833919;29;20097;-86
2022/01/12 12:53:52;;;;;;;68.88;17.90;;;6.50;99.90;;;;;;4833328;29;20045;-87
2022/01/12 12:56:47;;;;;;;58.47;16.73;;;5.50;99.90;;;;;;4851472;29;20100;-84
2022/01/12 12:59:13;;;;;;;63.10;16.23;;;5.70;99.90;;;;;;4844028;29;20053;-87
2022/01/12 13:01:42;;;;;;;62.97;17.35;;;5.50;99.90;;;;;;4837098;29;20378;-86
2022/01/12 13:04:36;;;;;;;50.28;17.05;;;6.00;99.90;;;;;;4834379;29;20053;-87
2022/01/12 13:07:17;;;;;;;57.08;17.33;;;5.50;99.90;;;;;;4846539;29;20057;-93
2022/01/12 13:09:43;;;;;;;56.42;18.52;;;5.50;99.90;;;;;;4854748;29;20104;-79
2022/01/12 13:12:10;;;;;;;61.38;17.83;;;5.50;99.90;;;;;;4871696;29;20338;-89
2022/01/12 13:14:45;;;;;;;56.72;16.88;;;5.50;99.90;;;;;;4840044;29;20068;-86
2022/01/12 13:17:11;;;;;;;53.38;15.07;;;5.40;99.90;;;;;;4843201;29;20056;-94
2022/01/12 13:22:49;;;;;;;39.53;15.60;;;6.60;99.90;;;;;;4872677;29;20457;-89
2022/01/12 13:25:16;;;;;;;53.05;17.38;;;5.50;99.90;;;;;;4842104;29;20057;-86
2022/01/12 13:27:46;;;;;;;48.97;16.35;;;5.60;99.90;;;;;;4858038;29;20048;-85
2022/01/12 13:30:23;;;;;;;47.85;16.38;;;4.90;99.90;;;;;;4876687;29;20489;-86
2022/01/12 13:32:52;;;;;;;47.90;14.80;;;5.60;99.90;;;;;;4859667;29;20505;-85
2022/01/12 13:35:24;;;;;;;38.65;14.40;;;6.50;99.90;;;;;;4860022;29;20041;-86
2022/01/12 13:37:56;;;;;;;50.22;15.48;;;5.50;99.90;;;;;;4879628;29;20055;-85
2022/01/12 13:40:36;;;;;;;56.63;16.30;;;6.50;99.90;;;;;;4864106;29;20041;-85
2022/01/12 13:43:02;;;;;;;41.42;14.73;;;5.30;99.90;;;;;;4845788;29;20060;-83
2022/01/12 13:45:38;;;;;;;38.97;13.15;;;6.40;99.90;;;;;;4856969;29;20048;-83
2022/01/12 13:48:12;;;;;;;50.10;16.25;;;5.30;99.90;;;;;;4856184;29;20512;-85
2022/01/12 13:50:40;;;;;;;53.47;15.65;;;6.30;99.90;;;;;;4840942;29;20041;-84
2022/01/12 13:53:06;;;;;;;49.58;14.88;;;5.40;99.90;;;;;;4856312;29;20687;-85
2022/01/12 13:55:33;;;;;;;46.17;15.50;;;6.10;99.90;;;;;;4841377;29;20150;-85
2022/01/12 13:58:05;;;;;;;39.20;13.05;;;5.20;99.90;;;;;;4856834;29;20300;-84
2022/01/12 14:00:31;;;;;;;59.13;15.25;;;5.20;99.90;;;;;;4855740;29;20053;-84